createdAt,value
2022-10-31T00:01:54.413Z,19.33
2022-10-31T00:04:20.977Z,19.28
2022-10-31T00:06:47.511Z,19.38
2022-10-31T00:09:14.095Z,19.33
2022-10-31T00:11:40.665Z,19.38
2022-10-31T00:14:07.402Z,19.38
2022-10-31T00:16:33.962Z,19.40
2022-10-31T00:19:03.648Z,19.38
2022-10-31T00:21:31.377Z,19.35
2022-10-31T00:24:00.128Z,19.37
2022-10-31T00:26:33.212Z,19.33
2022-10-31T00:29:00.810Z,19.23
2022-10-31T00:31:27.804Z,19.25
2022-10-31T00:33:54.293Z,19.25
2022-10-31T00:36:21.777Z,19.25
2022-10-31T00:38:49.365Z,19.29
2022-10-31T00:41:17.818Z,19.28
2022-10-31T00:43:44.638Z,19.27
2022-10-31T00:46:12.462Z,19.28
2022-10-31T00:48:39.001Z,19.30
2022-10-31T00:51:05.702Z,19.32
2022-10-31T00:53:32.205Z,19.34
2022-10-31T00:55:59.026Z,19.28
2022-10-31T00:58:25.580Z,19.24
2022-10-31T01:00:56.222Z,19.20
2022-10-31T01:03:29.120Z,19.14
2022-10-31T01:05:58.502Z,19.17
2022-10-31T01:08:25.136Z,19.16
2022-10-31T01:11:07.469Z,19.15
2022-10-31T01:13:35.341Z,19.04
2022-10-31T01:16:04.809Z,19.05
2022-10-31T01:18:31.773Z,18.95
2022-10-31T01:21:06.391Z,18.95
2022-10-31T01:23:33.849Z,18.98
2022-10-31T01:26:21.483Z,18.99
2022-10-31T01:28:59.691Z,18.95
2022-10-31T01:31:35.616Z,18.89
2022-10-31T01:34:02.975Z,18.87
2022-10-31T01:36:31.046Z,18.87
2022-10-31T01:39:00.321Z,18.90
2022-10-31T01:41:36.341Z,18.87
2022-10-31T01:44:24.201Z,18.82
2022-10-31T01:46:56.148Z,18.82
2022-10-31T01:49:33.210Z,18.74
2022-10-31T01:52:06.086Z,18.77
2022-10-31T01:54:39.025Z,18.72
2022-10-31T01:57:07.816Z,18.74
2022-10-31T01:59:40.764Z,18.63
2022-10-31T02:02:08.146Z,18.69
2022-10-31T02:04:35.757Z,18.61
2022-10-31T02:07:08.367Z,18.52
2022-10-31T02:09:35.538Z,18.62
2022-10-31T02:12:03.557Z,18.63
2022-10-31T02:14:32.146Z,18.61
2022-10-31T02:16:59.123Z,18.61
2022-10-31T02:19:36.819Z,18.61
2022-10-31T02:22:22.458Z,18.56
2022-10-31T02:25:21.223Z,18.65
2022-10-31T02:28:21.222Z,18.55
2022-10-31T02:31:29.312Z,18.45
2022-10-31T02:34:35.596Z,18.43
2022-10-31T02:37:12.559Z,18.46
2022-10-31T02:39:48.381Z,18.46
2022-10-31T02:42:27.607Z,18.42
2022-10-31T02:45:08.387Z,18.51
2022-10-31T02:47:38.345Z,18.44
2022-10-31T02:50:11.058Z,18.51
2022-10-31T02:52:37.838Z,18.38
2022-10-31T02:55:37.021Z,18.36
2022-10-31T02:58:11.262Z,18.45
2022-10-31T03:01:15.007Z,18.46
2022-10-31T03:04:08.982Z,18.34
2022-10-31T03:07:02.858Z,18.32
2022-10-31T03:09:41.518Z,18.29
2022-10-31T03:12:07.962Z,18.25
2022-10-31T03:14:43.205Z,18.36
2022-10-31T03:17:17.681Z,18.37
2022-10-31T03:19:48.913Z,18.38
2022-10-31T03:22:23.082Z,18.38
2022-10-31T03:24:52.368Z,18.41
2022-10-31T03:27:23.367Z,18.41
2022-10-31T03:29:54.660Z,18.42
2022-10-31T03:32:26.053Z,18.38
2022-10-31T03:34:58.069Z,18.28
2022-10-31T03:37:28.315Z,18.30
2022-10-31T03:39:56.188Z,18.31
2022-10-31T03:42:25.643Z,18.32
2022-10-31T03:45:07.785Z,18.29
2022-10-31T03:47:38.475Z,18.28
2022-10-31T03:50:07.836Z,18.30
2022-10-31T03:52:45.303Z,18.22
2022-10-31T03:55:17.830Z,18.28
2022-10-31T03:58:11.936Z,18.23
2022-10-31T04:00:44.951Z,18.20
2022-10-31T04:03:16.595Z,18.26
2022-10-31T04:05:47.027Z,18.21
2022-10-31T04:08:18.209Z,18.22
2022-10-31T04:10:48.209Z,18.18
2022-10-31T04:13:20.385Z,18.09
2022-10-31T04:15:48.644Z,18.16
2022-10-31T04:18:15.260Z,18.13
2022-10-31T04:20:42.514Z,18.06
2022-10-31T04:23:25.145Z,18.14
2022-10-31T04:25:51.632Z,18.08
2022-10-31T04:30:45.760Z,18.09
2022-10-31T04:33:12.417Z,18.15
2022-10-31T04:35:38.935Z,18.14
2022-10-31T04:38:05.426Z,18.13
2022-10-31T04:40:31.908Z,18.08
2022-10-31T04:42:58.840Z,18.04
2022-10-31T04:45:25.640Z,18.13
2022-10-31T04:47:52.099Z,18.02
2022-10-31T04:50:18.916Z,18.12
2022-10-31T04:52:47.249Z,18.14
2022-10-31T04:55:14.729Z,18.09
2022-10-31T04:57:45.977Z,17.98
2022-10-31T05:00:14.633Z,18.01
2022-10-31T05:02:52.849Z,18.02
2022-10-31T05:05:21.496Z,17.99
2022-10-31T05:07:49.029Z,17.93
2022-10-31T05:10:19.979Z,17.88
2022-10-31T05:13:01.300Z,17.99
2022-10-31T05:15:29.332Z,17.92
2022-10-31T05:17:56.508Z,17.94
2022-10-31T05:20:26.010Z,17.87
2022-10-31T05:22:54.775Z,17.92
2022-10-31T05:25:23.228Z,17.95
2022-10-31T05:27:51.496Z,17.92
2022-10-31T05:30:21.320Z,17.91
2022-10-31T05:32:49.969Z,17.86
2022-10-31T05:35:21.376Z,17.88
2022-10-31T05:37:48.101Z,17.47
2022-10-31T05:40:16.054Z,17.36
2022-10-31T05:42:43.893Z,17.24
2022-10-31T05:45:12.186Z,17.00
2022-10-31T05:47:38.701Z,16.98
2022-10-31T05:50:06.470Z,16.91
2022-10-31T05:52:33.438Z,16.87
2022-10-31T05:55:00.020Z,16.78
2022-10-31T05:57:26.854Z,16.76
2022-10-31T05:59:56.364Z,16.79
2022-10-31T06:02:23.128Z,16.69
2022-10-31T06:04:49.710Z,16.77
2022-10-31T06:07:16.221Z,16.73
2022-10-31T06:09:42.796Z,16.70
2022-10-31T06:12:09.366Z,16.65
2022-10-31T06:14:35.861Z,16.53
2022-10-31T06:17:02.343Z,16.52
2022-10-31T06:19:28.923Z,16.45
2022-10-31T06:21:55.430Z,16.44
2022-10-31T06:24:21.896Z,16.41
2022-10-31T06:26:48.385Z,16.47
2022-10-31T06:29:15.041Z,16.49
2022-10-31T06:31:41.533Z,16.57
2022-10-31T06:34:08.064Z,16.59
2022-10-31T06:36:34.541Z,16.60
2022-10-31T06:39:01.597Z,16.56
2022-10-31T06:41:28.142Z,16.55
2022-10-31T06:43:54.690Z,16.58
2022-10-31T06:46:21.158Z,16.58
2022-10-31T06:48:48.269Z,16.66
2022-10-31T06:51:14.845Z,16.70
2022-10-31T06:53:41.383Z,16.75
2022-10-31T06:56:08.130Z,16.81
2022-10-31T06:58:34.691Z,16.83
2022-10-31T07:01:01.973Z,16.87
2022-10-31T07:03:28.749Z,16.90
2022-10-31T07:06:00.908Z,16.95
2022-10-31T07:08:27.515Z,17.00
2022-10-31T07:10:56.332Z,17.14
2022-10-31T07:13:26.468Z,17.28
2022-10-31T07:15:56.424Z,17.34
2022-10-31T07:18:22.982Z,17.36
2022-10-31T07:20:50.109Z,17.48
2022-10-31T07:23:16.615Z,17.51
2022-10-31T07:25:43.189Z,17.56
2022-10-31T07:28:10.493Z,17.63
2022-10-31T07:30:38.182Z,17.66
2022-10-31T07:33:05.788Z,17.60
2022-10-31T07:35:33.034Z,17.64
2022-10-31T07:38:08.400Z,17.58
2022-10-31T07:40:35.159Z,17.66
2022-10-31T07:43:01.741Z,17.67
2022-10-31T07:45:28.232Z,17.61
2022-10-31T07:47:55.258Z,17.61
2022-10-31T07:50:24.131Z,17.57
2022-10-31T07:53:00.375Z,17.51
2022-10-31T07:55:27.215Z,17.49
2022-10-31T07:57:58.782Z,17.43
2022-10-31T08:00:26.057Z,17.49
2022-10-31T08:03:04.395Z,17.50
2022-10-31T08:05:31.790Z,17.63
2022-10-31T08:07:59.075Z,17.80
2022-10-31T08:10:27.087Z,18.01
2022-10-31T08:12:58.670Z,18.23
2022-10-31T08:15:25.935Z,18.44
2022-10-31T08:17:53.521Z,18.65
2022-10-31T08:20:21.035Z,18.79
2022-10-31T08:23:14.461Z,19.00
2022-10-31T08:25:41.368Z,19.06
2022-10-31T08:28:09.870Z,19.24
2022-10-31T08:30:38.328Z,19.33
2022-10-31T08:33:07.800Z,19.35
2022-10-31T08:35:34.512Z,19.46
2022-10-31T08:38:02.074Z,19.51
2022-10-31T08:40:31.762Z,19.68
2022-10-31T08:43:05.801Z,19.70
2022-10-31T08:45:34.127Z,19.75
2022-10-31T08:48:05.966Z,19.85
2022-10-31T08:50:34.703Z,19.89
2022-10-31T08:53:09.155Z,19.93
2022-10-31T08:55:36.635Z,19.99
2022-10-31T08:58:05.100Z,20.01
2022-10-31T09:00:32.710Z,20.13
2022-10-31T09:03:00.781Z,20.24
2022-10-31T09:05:27.405Z,20.33
2022-10-31T09:07:58.935Z,20.37
2022-10-31T09:10:26.859Z,20.48
2022-10-31T09:13:14.461Z,20.45
2022-10-31T09:15:43.287Z,20.44
2022-10-31T09:18:10.850Z,20.44
2022-10-31T09:20:38.795Z,20.49
2022-10-31T09:23:16.710Z,20.56
2022-10-31T09:25:49.164Z,20.53
2022-10-31T09:28:19.241Z,20.52
2022-10-31T09:30:48.612Z,20.50
2022-10-31T09:33:15.851Z,20.52
2022-10-31T09:35:42.781Z,20.56
2022-10-31T09:38:20.754Z,20.60
2022-10-31T09:40:48.396Z,20.64
2022-10-31T09:43:33.111Z,20.69
2022-10-31T09:46:26.218Z,20.77
2022-10-31T09:48:52.794Z,20.82
2022-10-31T09:51:34.351Z,20.89
2022-10-31T09:54:07.142Z,20.92
2022-10-31T09:56:34.205Z,20.95
2022-10-31T09:59:02.542Z,20.94
2022-10-31T10:01:54.857Z,20.98
2022-10-31T10:04:30.421Z,21.00
2022-10-31T10:06:59.068Z,21.09
2022-10-31T10:09:27.832Z,21.05
2022-10-31T10:12:00.305Z,21.05
2022-10-31T10:14:35.865Z,21.11
2022-10-31T10:17:28.387Z,21.25
2022-10-31T10:20:00.579Z,21.32
2022-10-31T10:22:34.247Z,21.39
2022-10-31T10:25:20.901Z,21.49
2022-10-31T10:28:03.551Z,21.56
2022-10-31T10:30:48.613Z,21.56
2022-10-31T10:33:26.091Z,21.64
2022-10-31T10:36:00.832Z,21.66
2022-10-31T10:38:33.157Z,21.70
2022-10-31T10:41:02.944Z,21.75
2022-10-31T10:43:36.284Z,21.82
2022-10-31T10:46:30.456Z,21.93
2022-10-31T10:49:21.761Z,22.07
2022-10-31T10:52:35.430Z,22.11
2022-10-31T10:54:59.729Z,22.20
2022-10-31T10:57:32.093Z,22.25
2022-10-31T11:00:02.688Z,22.35
2022-10-31T11:02:33.501Z,22.52
2022-10-31T11:05:02.278Z,22.55
2022-10-31T11:07:39.974Z,22.58
2022-10-31T11:10:14.991Z,22.62
2022-10-31T11:12:42.711Z,22.70
2022-10-31T11:15:25.132Z,22.77
2022-10-31T11:17:54.096Z,22.82
2022-10-31T11:20:20.789Z,22.91
2022-10-31T11:22:49.647Z,22.90
2022-10-31T11:25:24.061Z,22.92
2022-10-31T11:28:04.336Z,22.99
2022-10-31T11:30:36.249Z,23.04
2022-10-31T11:33:04.510Z,23.08
2022-10-31T11:35:31.914Z,23.07
2022-10-31T11:38:01.458Z,23.19
2022-10-31T11:40:28.705Z,23.15
2022-10-31T11:42:58.221Z,23.16
2022-10-31T11:45:24.700Z,23.22
2022-10-31T11:47:59.610Z,23.33
2022-10-31T11:50:40.076Z,23.36
2022-10-31T11:53:23.210Z,23.43
2022-10-31T11:56:02.942Z,23.45
2022-10-31T11:58:29.425Z,23.42
2022-10-31T12:00:57.724Z,23.40
2022-10-31T12:03:24.183Z,23.37
2022-10-31T12:06:05.650Z,23.39
2022-10-31T12:08:35.034Z,23.41
2022-10-31T12:11:32.100Z,23.43
2022-10-31T12:14:06.704Z,23.49
2022-10-31T12:16:41.580Z,23.59
2022-10-31T12:19:22.925Z,23.75
2022-10-31T12:22:10.279Z,23.73
2022-10-31T12:24:52.804Z,23.78
2022-10-31T12:27:22.000Z,23.81
2022-10-31T12:30:35.157Z,23.75
2022-10-31T12:33:32.300Z,23.74
2022-10-31T12:36:15.446Z,23.76
2022-10-31T12:38:54.812Z,23.72
2022-10-31T12:41:27.316Z,23.83
2022-10-31T12:44:06.686Z,23.86
2022-10-31T12:46:42.157Z,23.88
2022-10-31T12:49:28.979Z,23.87
2022-10-31T12:52:14.033Z,23.90
2022-10-31T12:55:04.342Z,23.89
2022-10-31T12:57:43.381Z,23.82
2022-10-31T13:00:18.983Z,23.85
2022-10-31T13:02:50.680Z,23.80
2022-10-31T13:05:22.859Z,23.82
2022-10-31T13:07:57.092Z,23.83
2022-10-31T13:10:35.977Z,23.84
2022-10-31T13:13:12.636Z,23.83
2022-10-31T13:16:01.272Z,23.95
2022-10-31T13:18:32.973Z,24.04
2022-10-31T13:21:02.886Z,23.95
2022-10-31T13:23:50.924Z,23.95
2022-10-31T13:26:42.001Z,24.04
2022-10-31T13:29:33.086Z,24.10
2022-10-31T13:32:05.038Z,24.08
2022-10-31T13:34:54.185Z,24.09
2022-10-31T13:37:45.317Z,24.07
2022-10-31T13:40:36.031Z,24.14
2022-10-31T13:43:38.167Z,24.14
2022-10-31T13:49:29.461Z,24.10
2022-10-31T13:52:14.385Z,24.01
2022-10-31T13:54:46.884Z,23.96
2022-10-31T13:57:29.007Z,23.88
2022-10-31T14:00:05.692Z,23.86
2022-10-31T14:02:36.027Z,23.76
2022-10-31T14:05:22.708Z,23.76
2022-10-31T14:07:50.520Z,23.66
2022-10-31T14:10:36.883Z,23.67
2022-10-31T14:13:35.452Z,23.69
2022-10-31T14:16:05.826Z,23.60
2022-10-31T14:18:49.238Z,23.53
2022-10-31T14:21:24.850Z,23.45
2022-10-31T14:23:54.993Z,23.49
2022-10-31T14:26:27.566Z,23.43
2022-10-31T14:28:56.937Z,23.41
2022-10-31T14:31:33.143Z,23.33
2022-10-31T14:34:10.730Z,23.35
2022-10-31T14:36:49.103Z,23.30
2022-10-31T14:39:49.752Z,23.27
2022-10-31T14:42:44.171Z,23.15
2022-10-31T14:45:16.654Z,23.18
2022-10-31T14:48:12.105Z,23.12
2022-10-31T14:50:55.092Z,23.11
2022-10-31T14:53:35.586Z,23.11
2022-10-31T14:56:06.658Z,23.08
2022-10-31T14:58:41.770Z,22.97
2022-10-31T15:01:08.779Z,22.98
2022-10-31T15:03:44.660Z,22.92
2022-10-31T15:06:17.680Z,22.98
2022-10-31T15:08:52.981Z,22.93
2022-10-31T15:11:22.942Z,22.96
2022-10-31T15:13:54.604Z,22.85
2022-10-31T15:16:36.758Z,22.85
2022-10-31T15:19:10.873Z,22.82
2022-10-31T15:21:46.060Z,22.79
2022-10-31T15:24:19.426Z,22.78
2022-10-31T15:26:52.857Z,22.71
2022-10-31T15:29:24.969Z,22.68
2022-10-31T15:31:55.657Z,22.64
2022-10-31T15:34:44.068Z,22.62
2022-10-31T15:37:15.150Z,22.61
2022-10-31T15:39:42.841Z,22.54
2022-10-31T15:42:31.020Z,22.56
2022-10-31T15:45:24.961Z,22.54
2022-10-31T15:48:00.194Z,22.49
2022-10-31T15:50:42.308Z,22.44
2022-10-31T15:53:26.409Z,22.40
2022-10-31T15:55:57.904Z,22.39
2022-10-31T15:58:26.489Z,22.33
2022-10-31T16:01:02.011Z,22.30
2022-10-31T16:03:31.140Z,22.37
2022-10-31T16:05:58.891Z,22.32
2022-10-31T16:08:27.123Z,22.34
2022-10-31T16:10:54.710Z,22.32
2022-10-31T16:13:27.317Z,22.28
2022-10-31T16:16:34.009Z,22.23
2022-10-31T16:19:03.101Z,22.16
2022-10-31T16:21:36.051Z,22.20
2022-10-31T16:24:27.581Z,22.13
2022-10-31T16:26:58.289Z,22.05
2022-10-31T16:29:38.955Z,22.04
2022-10-31T16:32:05.834Z,21.98
2022-10-31T16:34:32.453Z,21.98
2022-10-31T16:36:58.988Z,21.88
2022-10-31T16:39:25.478Z,21.83
2022-10-31T16:41:55.792Z,21.83
2022-10-31T16:44:24.074Z,21.82
2022-10-31T16:47:08.025Z,21.86
2022-10-31T16:49:34.575Z,21.93
2022-10-31T16:52:01.094Z,21.94
2022-10-31T16:54:30.032Z,21.79
2022-10-31T16:56:56.608Z,21.79
2022-10-31T16:59:23.094Z,21.74
2022-10-31T17:01:50.403Z,21.79
2022-10-31T17:04:17.226Z,21.76
2022-10-31T17:06:43.767Z,21.76
2022-10-31T17:09:10.713Z,21.86
2022-10-31T17:11:41.565Z,21.82
2022-10-31T17:14:11.152Z,21.71
2022-10-31T17:16:38.142Z,21.70
2022-10-31T17:19:04.636Z,21.67
2022-10-31T17:21:31.448Z,21.62
2022-10-31T17:23:57.941Z,21.54
2022-10-31T17:26:24.407Z,21.60
2022-10-31T17:28:50.982Z,21.59
2022-10-31T17:31:28.495Z,21.54
2022-10-31T17:34:02.000Z,21.53
2022-10-31T17:36:28.905Z,21.46
2022-10-31T17:38:55.670Z,21.45
2022-10-31T17:41:22.196Z,21.49
2022-10-31T17:43:48.742Z,21.42
2022-10-31T17:46:15.456Z,21.44
2022-10-31T17:48:42.001Z,21.43
2022-10-31T17:51:08.620Z,21.40
2022-10-31T17:53:35.788Z,21.32
2022-10-31T17:56:07.907Z,21.33
2022-10-31T17:58:35.971Z,21.37
2022-10-31T18:01:09.460Z,21.36
2022-10-31T18:03:36.225Z,21.34
2022-10-31T18:06:02.745Z,21.34
2022-10-31T18:08:31.873Z,21.33
2022-10-31T18:11:01.919Z,21.29
2022-10-31T18:13:28.753Z,21.21
2022-10-31T18:15:55.582Z,21.24
2022-10-31T18:18:22.580Z,21.24
2022-10-31T18:20:49.060Z,21.34
2022-10-31T18:23:15.602Z,21.38
2022-10-31T18:25:43.485Z,21.30
2022-10-31T18:28:10.730Z,21.27
2022-10-31T18:30:41.453Z,21.26
2022-10-31T18:33:08.871Z,21.30
2022-10-31T18:35:37.833Z,21.32
2022-10-31T18:38:06.146Z,21.32
2022-10-31T18:40:35.863Z,21.31
2022-10-31T18:43:03.371Z,21.24
2022-10-31T18:45:41.539Z,21.17
2022-10-31T18:48:14.451Z,21.24
2022-10-31T18:50:41.393Z,21.24
2022-10-31T18:53:08.081Z,21.20
2022-10-31T18:55:34.821Z,21.10
2022-10-31T18:58:01.345Z,21.10
2022-10-31T19:00:27.861Z,21.12
2022-10-31T19:02:56.464Z,21.06
2022-10-31T19:05:23.355Z,21.17
2022-10-31T19:07:49.856Z,21.15
2022-10-31T19:10:16.573Z,21.07
2022-10-31T19:12:43.074Z,21.06
2022-10-31T19:15:09.997Z,20.99
2022-10-31T19:17:36.513Z,20.96
2022-10-31T19:20:03.188Z,21.07
2022-10-31T19:22:32.026Z,21.09
2022-10-31T19:24:58.516Z,21.09
2022-10-31T19:27:27.543Z,20.94
2022-10-31T19:29:54.452Z,20.97
2022-10-31T19:32:21.008Z,21.00
2022-10-31T19:34:47.531Z,20.94
2022-10-31T19:37:14.427Z,21.02
2022-10-31T19:39:44.111Z,20.91
2022-10-31T19:42:11.049Z,20.89
2022-10-31T19:44:37.656Z,20.86
2022-10-31T19:47:04.241Z,20.82
2022-10-31T19:49:30.898Z,20.79
2022-10-31T19:51:57.497Z,20.75
2022-10-31T19:54:24.072Z,20.72
2022-10-31T19:56:50.787Z,20.76
2022-10-31T19:59:17.308Z,20.70
2022-10-31T20:01:43.918Z,20.77
2022-10-31T20:04:10.852Z,20.70
2022-10-31T20:06:39.746Z,20.57
2022-10-31T20:09:09.718Z,20.74
2022-10-31T20:11:38.116Z,20.78
2022-10-31T20:14:05.697Z,20.77
2022-10-31T20:16:32.793Z,20.75
2022-10-31T20:19:00.790Z,20.75
2022-10-31T20:21:29.664Z,20.67
2022-10-31T20:24:02.041Z,20.70
2022-10-31T20:26:32.572Z,20.63
2022-10-31T20:29:00.573Z,20.58
2022-10-31T20:31:30.349Z,20.56
2022-10-31T20:33:57.152Z,20.55
2022-10-31T20:36:24.306Z,20.50
2022-10-31T20:38:52.591Z,20.44
2022-10-31T20:41:19.632Z,20.35
2022-10-31T20:43:46.841Z,20.35
2022-10-31T20:46:21.905Z,20.28
2022-10-31T20:48:48.785Z,20.27
2022-10-31T20:51:23.872Z,20.30
2022-10-31T20:53:55.802Z,20.30
2022-10-31T20:56:24.710Z,20.29
2022-10-31T20:58:51.916Z,20.26
2022-10-31T21:01:22.702Z,20.21
2022-10-31T21:03:50.402Z,20.20
2022-10-31T21:06:17.959Z,20.14
2022-10-31T21:08:45.427Z,20.18
2022-10-31T21:11:15.910Z,20.17
2022-10-31T21:13:44.188Z,20.21
2022-10-31T21:16:17.336Z,20.18
2022-10-31T21:18:45.013Z,20.26
2022-10-31T21:21:15.129Z,20.28
2022-10-31T21:23:43.030Z,20.32
2022-10-31T21:26:13.614Z,20.45
2022-10-31T21:28:40.382Z,20.41
2022-10-31T21:31:12.918Z,20.40
2022-10-31T21:33:40.158Z,20.32
2022-10-31T21:36:07.421Z,20.25
2022-10-31T21:38:34.646Z,20.26
2022-10-31T21:41:22.018Z,20.26
2022-10-31T21:43:50.317Z,20.26
2022-10-31T21:46:19.979Z,20.24
2022-10-31T21:48:46.941Z,20.25
2022-10-31T21:51:20.169Z,20.30
2022-10-31T21:54:05.908Z,20.31
2022-10-31T21:56:32.865Z,20.35
2022-10-31T21:59:00.444Z,20.31
2022-10-31T22:01:29.904Z,20.31
2022-10-31T22:03:58.032Z,20.29
2022-10-31T22:06:30.187Z,20.23
2022-10-31T22:08:59.986Z,20.29
2022-10-31T22:11:28.392Z,20.24
2022-10-31T22:13:55.296Z,20.18
2022-10-31T22:16:24.025Z,20.13
2022-10-31T22:18:56.169Z,20.11
2022-10-31T22:21:24.979Z,20.05
2022-10-31T22:23:53.550Z,20.05
2022-10-31T22:26:20.776Z,20.06
2022-10-31T22:28:49.261Z,20.06
2022-10-31T22:31:19.034Z,20.06
2022-10-31T22:33:46.882Z,20.06
2022-10-31T22:36:17.189Z,20.03
2022-10-31T22:38:44.738Z,20.01
2022-10-31T22:41:14.440Z,19.99
2022-10-31T22:43:41.507Z,19.97
2022-10-31T22:46:15.916Z,20.03
2022-10-31T22:48:48.096Z,20.08
2022-10-31T22:51:17.700Z,20.16
2022-10-31T22:53:45.294Z,20.23
2022-10-31T22:56:14.876Z,20.40
2022-10-31T22:58:41.988Z,20.30
2022-10-31T23:01:11.167Z,19.98
2022-10-31T23:03:37.915Z,20.07
2022-10-31T23:06:06.337Z,19.69
2022-10-31T23:08:35.853Z,19.56
2022-10-31T23:11:04.778Z,19.61
2022-10-31T23:13:49.989Z,19.57
2022-10-31T23:16:16.467Z,19.51
2022-10-31T23:18:50.177Z,19.58
2022-10-31T23:21:37.439Z,19.10
2022-10-31T23:24:04.740Z,19.15
2022-10-31T23:26:49.732Z,18.88
2022-10-31T23:29:16.226Z,18.53
2022-10-31T23:31:42.779Z,18.15
2022-10-31T23:34:09.404Z,17.82
2022-10-31T23:36:36.651Z,17.81
2022-10-31T23:39:03.634Z,17.21
2022-10-31T23:41:30.152Z,17.13
2022-10-31T23:43:56.758Z,18.22
2022-10-31T23:46:23.259Z,17.21
2022-10-31T23:48:50.838Z,16.97
2022-10-31T23:51:17.334Z,16.92
2022-10-31T23:53:45.467Z,17.10
2022-10-31T23:56:12.976Z,17.03
2022-10-31T23:58:40.206Z,16.79
